AirNav   Air Wisconsin Up To $57,000 Bonus
 
 966 users online  

44G Betz Airport
Blissfield, Michigan, USA

GOING TO BLISSFIELD?


FAA INFORMATION EFFECTIVE 11 AUGUST 2022

Location

FAA Identifier: 44G
Lat/Long: 41-51-18.1350N 083-52-14.7700W
41-51.302250N 083-52.246167W
41.8550375,-83.8707694
(estimated)
Elevation: 691 ft. / 211 m (estimated)
Variation: 05W (1985)
From city: 2 miles N of BLISSFIELD, MI
Time zone: UTC -4 (UTC -5 during Standard Time)
Zip code: 49228

Airport Operations

Airport use: Open to the public
Activation date: 09/1949
Control tower: no
ARTCC: CLEVELAND CENTER
FSS: LANSING FLIGHT SERVICE STATION
NOTAMs facility: LAN (NOTAM-D service available)
Attendance: UNATNDD
FOR SNOW CONDS DURG WINTER MONTHS CALL AMGR.
Wind indicator: yes
Segmented circle: no

Airport Communications

CTAF: 122.9
WX ASOS at ADG (9 nm W): 118.375 (517-265-9089)
WX AWOS-3 at DUH (12 nm SE): 119.175 (734-856-1563)
WX ASOS at TOL (16 nm S): PHONE 419-865-6924
WX AWOS-3P at USE (19 nm SW): 127.375 (419-335-0775)

Nearby radio navigation aids

VOR radial/distance  VOR name  Freq  Var
CRLr241/21.8CARLETON VOR/DME115.7003W
DXOr232/31.1DETROIT VOR/DME113.4006W
SVMr203/35.4SALEM VORTAC114.3003W

 
NDB name  Hdg/Dist  Freq  Var  ID
ADRIAN102/9.327806WADG .- -.. --.
TECUMSEH182/10.823906WTCU - -.-. ..-
GROSSE ILE252/35.341907WRYS .-. -.-- ...

Airport Services

Fuel available: 100LL
100LL:FUEL AVBL BY PRIOR ARNGMT CALL AMGR.
Parking: tiedowns

Runway Information

Runway 9/27

Dimensions: 2602 x 92 ft. / 793 x 28 m
Surface: turf, in good condition
SOFT IN SPRING.
Runway edge markings: RWY & DTHR MKD WITH CONES.
RUNWAY 9  RUNWAY 27
Latitude: 41-51.298500N41-51.306000N
Longitude: 083-52.532667W083-51.959667W
Elevation: 691.0 ft.690.0 ft.
Traffic pattern: leftleft
Runway heading: 094 magnetic, 089 true274 magnetic, 269 true
Displaced threshold: 415 ft.375 ft.
Runway end identifier lights: nono
Obstructions: 15 ft. road, 30 ft. from runway, 128 ft. left and right of centerline, 2:1 slope to clear
APCH RATIO 29:1 TO DTHR OVR 15 FT ROAD, 445 FT DIST, 169 FT L & R.
17 ft. road, 45 ft. from runway, 129 ft. left and right of centerline, 2:1 slope to clear
APCH RATIO 11:1 TO DTHR OVR 26 FT BLDG, 300 FT DIST, 155 FT R.

Airport Ownership and Management from official FAA records

Ownership: Privately-owned
Owner: DIANE SPILLMAN
PO BOX 115
BLISSFIELD, MI 49228-0115
Phone 517-499-4860
Manager: DIANE SPILLMAN
4504 S BLISSFIELD HWY
BLISSFIELD, MI 49228-9560
Phone 517-499-4860

Airport Operational Statistics

Aircraft based on the field: 9
Single engine airplanes: 9
    
Aircraft operations: avg 58/month *
71% local general aviation
29% transient general aviation
* for 12-month period ending 31 December 2021

Additional Remarks

RWY 09 -3 FT DITCH, 10 FT FM THR.
FOR CD CTC DETROIT APCH AT 734-955-1404.
RWY 09/27 +8 FT SEASONAL CROPS IN PRI SFC MAY RSTR VIS TO RWY CONES.

Instrument Procedures

There are no published instrument procedures at 44G.

Some nearby airports with instrument procedures:

KADG - Lenawee County Airport (9 nm W)
KDUH - Toledo Suburban Airport (12 nm SE)
KTOL - Eugene F Kranz Toledo Express Airport (16 nm S)
KUSE - Fulton County Airport (19 nm SW)
KTTF - Custer Airport (20 nm E)
 
Loc | Ops | Rwys | IFR | FBO | Links
Com | Nav | Svcs | Stats | Notes
Area around 44G (Betz Airport)
 
Road maps at: MapQuest Bing Google
 
Aerial photo
WARNING: Photo may not be current or correct
Aerial photo of 44G (Betz Airport)
Photo credit: Mark - www.LocalHangar.com

Do you have a better or more recent aerial photo of Betz Airport that you would like to share? If so, please send us your photo.

 
Sectional chart

 
Airport distance calculator
Flying to Betz Airport? Find the distance to fly.

From to 44G

Sunrise and sunset
Times for 13-Aug-2022
 Local
(UTC-4)
 Zulu
(UTC)
Morning civil twilight06:1210:12
Sunrise06:4210:42
Sunset20:3800:38
Evening civil twilight21:0801:08

Current date and time
Zulu (UTC)  14-Aug-2022 01:40:50
Local (UTC-4)  13-Aug-2022 21:40:50
 
METAR
KADG 
10nm W 
140053Z AUTO 10010KT 4SM RA BR FEW004 BKN080 OVC100 15/14 A3007 RMK AO2 PRESFR SLP185 P0008 T01500144
KDUH 
12nm SE 
140115Z AUTO 03003KT 10SM SCT032 SCT050 SCT060 16/16 A3010 RMK AO2 T01620161
KTOL 
17nm S 
140052Z 07005KT 9SM -RA OVC110 17/16 A3010 RMK AO2 SLP190 P0003 T01720156
KUSE 
19nm SW 
140115Z AUTO 20007KT 8SM RA SCT036 BKN070 OVC110 15/15 A3006 RMK AO2
TAF
KTOL 
17nm S 
132334Z 1400/1424 07006KT P6SM -SHRA SCT050 OVC100 TEMPO 1400/1402 4SM SHRA BR FM140900 11005KT P6SM -SHRA OVC050 TEMPO 1417/1421 4SM SHRA BR FM142100 10009KT P6SM VCSH BKN025
NOTAMs
Click for the latest NOTAMs
NOTAMs are issued by the DoD/FAA and will open in a separate window not controlled by AirNav.

 

 
 

FBO, Fuel Providers, and Aircraft Ground Support

  
 Business Name 
 
 Contact 
 
 Services / Description 
 
Fuel Prices
 
Comments
  
Betz Airport 517-499-4860
no information available

If you are affiliated with Betz Airport and would like to show here your services, contact info, web link, logo, and more, click here
100LL
AS $5.00 
 Updated 08-Jul-2021
 
   2 read write
AS=Assisted/Self Service
Update Fuel Prices
 

Would you like to see your business listed on this page?

 If your business provides an interesting product or service to pilots, flight crews, aircraft, or users of the Betz Airport, you should consider listing it here.  To start the listing process, click on the button below
 
Add a business
 

Other Pages about Betz Airport

Page from the Michigan Airport Directory (PDF)
 
Update a link
 
Copyright © AirNav, LLC. All rights reserved. Privacy Policy  Contact